Time;durP1;ratioP1;P1;durP2;ratioP2;P2;SDS_P1;SDS_P2;PMS_P1;PMS_P2;Temp;Humidity;BMP_temperature;BMP_pressure;BME280_temperature;BME280_humidity;BME280_pressure;Samples;Min_cycle;Max_cycle;Signal;HPM_P1;HPM_P2
2023/10/12 07:42:05;;;;;;;;;18.00;16.33;;;;;23.78;61.97;101969.22;146712;565;45022;-64
2023/10/12 07:46:36;;;;;;;;;18.00;12.67;;;;;23.90;61.38;101964.12;146714;565;46022;-67
2023/10/12 07:49:57;;;;;;;;;15.67;12.33;;;;;24.01;62.41;101959.88;146626;585;47013;-80
2023/10/12 08:06:07;;;;;;;;;9.00;7.33;;;;;23.19;60.23;101909.03;146608;564;47012;-66
2023/10/12 08:09:36;;;;;;;;;12.00;8.33;;;;;22.83;62.88;101859.84;146622;590;46020;-66
2023/10/12 08:12:50;;;;;;;;;9.67;8.00;;;;;23.15;61.58;101904.56;146613;606;48012;-66
2023/10/12 08:15:59;;;;;;;;;10.00;8.00;;;;;23.14;61.04;101906.28;146617;613;46021;-66
2023/10/12 08:22:31;;;;;;;;;8.67;7.33;;;;;23.15;63.37;101897.53;146623;581;46010;-66
2023/10/12 08:25:42;;;;;;;;;8.00;8.00;;;;;23.09;60.99;101899.16;146616;566;47014;-66
2023/10/12 08:28:55;;;;;;;;;4.67;4.67;;;;;22.99;63.72;101900.72;146618;580;46021;-66
2023/10/12 08:35:39;;;;;;;;;10.67;9.33;;;;;22.90;62.28;101887.31;146617;592;47011;-66
2023/10/12 08:39:08;;;;;;;;;11.33;9.67;;;;;22.90;63.77;101888.19;146616;597;46016;-66
2023/10/12 08:45:29;;;;;;;;;9.33;9.00;;;;;23.61;64.88;101881.50;146618;606;47012;-66
2023/10/12 08:48:34;;;;;;;;;11.67;9.67;;;;;23.83;63.47;101885.41;146622;703;46020;-67
2023/10/12 08:55:14;;;;;;;;;8.00;7.00;;;;;23.79;65.16;101884.50;146610;624;47014;-65
2023/10/12 08:58:57;;;;;;;;;10.33;9.00;;;;;23.24;65.73;101786.56;146615;569;47012;-67
2023/10/12 09:02:11;;;;;;;;;12.00;9.00;;;;;23.70;62.58;101879.94;146622;635;46010;-69
2023/10/12 09:05:15;;;;;;;;;7.67;7.00;;;;;23.47;64.00;101879.53;146616;626;46017;-68
2023/10/12 09:12:11;;;;;;;;;11.67;10.67;;;;;23.39;63.75;101878.50;146609;597;46012;-70
2023/10/12 09:15:28;;;;;;;;;12.00;11.00;;;;;23.18;60.28;101878.16;146611;581;46020;-67
2023/10/12 09:18:43;;;;;;;;;12.00;11.00;;;;;22.90;66.43;101871.44;146612;585;46034;-68
2023/10/12 09:22:02;;;;;;;;;9.00;6.33;;;;;22.93;63.21;101875.03;146612;587;46048;-69
2023/10/12 09:25:26;;;;;;;;;10.67;9.33;;;;;21.86;65.35;101680.00;146617;584;46016;-67
2023/10/12 09:28:38;;;;;;;;;8.67;7.00;;;;;23.06;61.62;101860.31;146620;717;46022;-69
2023/10/12 09:32:23;;;;;;;;;9.00;8.00;;;;;23.16;61.93;101850.78;146618;640;46016;-69
2023/10/12 09:35:29;;;;;;;;;6.67;6.67;;;;;23.35;64.23;101847.56;146622;579;47010;-68
2023/10/12 09:38:31;;;;;;;;;9.00;7.00;;;;;23.56;61.03;101849.69;146610;609;47016;-69
2023/10/12 09:42:09;;;;;;;;;6.33;6.00;;;;;23.78;61.93;101842.09;146618;572;47010;-69
2023/10/12 09:45:44;;;;;;;;;;;;;;;;;;;;;
2023/10/12 09:48:46;;;;;;;;;8.67;7.00;;;;;24.12;60.75;101844.34;146620;577;46020;-68
2023/10/12 09:51:54;;;;;;;;;8.33;7.00;;;;;24.28;59.90;101841.91;146614;569;47016;-69
2023/10/12 09:55:14;;;;;;;;;9.33;7.33;;;;;24.47;64.63;101837.75;146622;663;46020;-67
2023/10/12 09:58:23;;;;;;;;;6.00;6.00;;;;;24.59;60.61;101840.53;146616;573;47012;-69
2023/10/12 10:04:46;;;;;;;;;7.33;7.00;;;;;24.70;56.44;101820.31;146617;694;46912;-69
2023/10/12 10:07:50;;;;;;;;;7.33;6.67;;;;;24.71;56.58;101821.22;146621;580;46020;-67
2023/10/12 10:11:07;;;;;;;;;;;;;;;;;;;;;
2023/10/12 10:14:16;;;;;;;;;9.33;6.67;;;;;24.86;52.89;101819.63;146622;740;46010;-70
2023/10/12 10:17:15;;;;;;;;;7.00;6.00;;;;;24.70;53.26;101811.47;146619;620;46913;-70
2023/10/12 10:20:46;;;;;;;;;8.33;6.33;;;;;24.64;60.01;101815.84;146621;590;47021;-68
2023/10/12 10:24:02;;;;;;;;;7.00;5.33;;;;;23.93;57.96;101659.56;146618;565;47012;-69
2023/10/12 10:27:18;;;;;;;;;6.67;6.67;;;;;24.95;58.52;101805.53;146623;609;46010;-68
2023/10/12 10:30:56;;;;;;;;;4.67;4.67;;;;;24.99;59.85;101796.75;146614;584;47012;-68
2023/10/12 10:34:03;;;;;;;;;;;;;;;;;;;;;
2023/10/12 10:36:57;;;;;;;;;4.67;4.67;;;;;24.76;54.54;101785.87;146612;569;48012;-69
2023/10/12 10:40:07;;;;;;;;;5.00;5.00;;;;;24.61;56.41;101796.34;146624;576;46010;-69
2023/10/12 10:43:18;;;;;;;;;6.00;6.00;;;;;24.64;56.04;101784.03;146616;637;47012;-68
2023/10/12 10:46:33;;;;;;;;;5.33;5.00;;;;;24.70;60.68;101775.22;146619;732;46020;-68
2023/10/12 10:49:31;;;;;;;;;8.33;8.00;;;;;24.62;55.14;101764.56;146618;696;46017;-68
2023/10/12 10:52:32;;;;;;;;;6.00;5.00;;;;;24.56;57.92;101763.59;146623;593;46020;-68
2023/10/12 10:55:36;;;;;;;;;6.00;6.00;;;;;24.54;60.13;101760.91;146617;586;46016;-67
2023/10/12 10:58:41;;;;;;;;;;;;;;;;;;;;;
2023/10/12 11:01:52;;;;;;;;;5.00;5.00;;;;;24.82;52.50;101745.28;146616;571;46016;-68
2023/10/12 11:04:48;;;;;;;;;8.00;7.00;;;;;24.81;56.76;101738.19;146619;634;47020;-68
2023/10/12 11:08:05;;;;;;;;;;;;;;;;;;;;;
2023/10/12 11:15:04;;;;;;;;;8.67;6.67;;;;;24.93;53.50;101725.03;146621;731;46012;-68
2023/10/12 11:18:17;;;;;;;;;7.67;6.00;;;;;24.60;50.81;101722.97;146626;621;45022;-67
2023/10/12 11:21:17;;;;;;;;;5.67;5.67;;;;;24.43;55.44;101718.41;146621;590;46034;-69
2023/10/12 11:24:23;;;;;;;;;6.33;5.33;;;;;24.60;57.14;101715.91;146620;579;46014;-69
2023/10/12 11:27:48;;;;;;;;;5.00;5.00;;;;;24.82;60.32;101716.97;146619;750;46918;-69
2023/10/12 11:31:07;;;;;;;;;6.33;6.33;;;;;24.04;55.91;101553.69;146624;609;46010;-69
2023/10/12 11:34:07;;;;;;;;;8.00;6.67;;;;;25.10;56.55;101704.81;146609;707;47915;-69
2023/10/12 11:37:19;;;;;;;;;10.33;8.00;;;;;25.20;56.78;101702.25;146622;621;46020;-68
2023/10/12 11:40:34;;;;;;;;;6.00;5.67;;;;;25.38;57.84;101696.19;146616;607;46012;-68
2023/10/12 11:43:57;;;;;;;;;6.00;6.00;;;;;24.75;58.50;101528.63;146622;569;47013;-68
2023/10/12 11:46:58;;;;;;;;;6.33;6.33;;;;;25.80;55.87;101688.41;146614;586;47913;-68
2023/10/12 11:50:14;;;;;;;;;7.00;6.00;;;;;25.91;56.60;101679.62;146624;564;46010;-68
2023/10/12 11:53:17;;;;;;;;;6.33;6.00;;;;;26.03;53.65;101679.66;146621;569;46016;-69
2023/10/12 11:56:17;;;;;;;;;8.33;7.00;;;;;26.08;53.12;101679.69;146621;714;46021;-69
2023/10/12 11:59:31;;;;;;;;;8.00;5.00;;;;;26.11;55.04;101682.34;146617;662;46016;-68
2023/10/12 12:02:30;;;;;;;;;7.00;6.33;;;;;26.07;53.86;101675.22;146621;564;46020;-68
2023/10/12 12:05:50;;;;;;;;;6.00;6.00;;;;;25.53;58.29;101593.56;146617;597;46012;-68
2023/10/12 12:08:47;;;;;;;;;6.00;6.00;;;;;25.97;53.22;101669.91;146622;705;46010;-67
2023/10/12 12:11:57;;;;;;;;;;;;;;;;;;;;;
2023/10/12 12:15:03;;;;;;;;;7.33;6.67;;;;;25.92;58.26;101650.41;146618;636;46022;-68
2023/10/12 12:18:26;;;;;;;;;8.00;7.00;;;;;25.92;57.86;101661.03;146617;571;46016;-68
2023/10/12 12:21:37;;;;;;;;;8.33;7.33;;;;;25.86;51.06;101657.44;146620;673;46021;-68
2023/10/12 12:27:57;;;;;;;;;;;;;;;;;;;;;
2023/10/12 12:31:10;;;;;;;;;;;;;;;;;;;;;
2023/10/12 12:34:41;;;;;;;;;9.33;7.33;;;;;25.32;50.86;101631.53;146625;571;46016;-68
2023/10/12 12:37:38;;;;;;;;;8.00;8.00;;;;;25.05;49.75;101628.72;146628;586;46028;-68
2023/10/12 12:40:44;;;;;;;;;7.33;5.33;;;;;24.81;53.56;101629.44;146622;741;46017;-68
2023/10/12 12:43:48;;;;;;;;;8.67;7.00;;;;;24.73;52.45;101626.72;146629;618;46020;-67
2023/10/12 12:46:49;;;;;;;;;6.67;6.67;;;;;24.74;55.78;101622.34;146625;738;47012;-68
2023/10/12 12:49:42;;;;;;;;;8.00;6.67;;;;;24.83;53.41;101628.59;146627;596;47010;-68
2023/10/12 12:52:47;;;;;;;;;9.33;8.33;;;;;24.87;53.50;101624.19;146624;593;46012;-67
2023/10/12 12:55:43;;;;;;;;;7.00;7.00;;;;;24.89;54.55;101619.75;146629;572;46021;-68
2023/10/12 12:58:39;;;;;;;;;8.00;6.67;;;;;24.93;54.32;101616.28;146623;571;47016;-67
2023/10/12 13:01:41;;;;;;;;;6.33;6.33;;;;;24.89;55.89;101611.81;146627;570;46021;-68
2023/10/12 13:04:43;;;;;;;;;9.00;8.00;;;;;24.88;54.81;101602.97;146621;614;46016;-69
2023/10/12 13:07:37;;;;;;;;;8.00;7.67;;;;;24.87;53.78;101601.19;146624;576;47010;-67
2023/10/12 13:10:45;;;;;;;;;7.00;6.00;;;;;24.85;52.95;101589.69;146624;569;46016;-68
2023/10/12 13:13:50;;;;;;;;;;;;;;;;;;;;;
2023/10/12 13:16:54;;;;;;;;;7.00;7.00;;;;;24.72;50.30;101594.91;146624;734;46014;-70
2023/10/12 13:19:53;;;;;;;;;6.67;6.67;;;;;24.57;55.06;101587.72;146629;751;46010;-68
2023/10/12 13:22:52;;;;;;;;;8.00;7.00;;;;;24.52;54.79;101589.47;146621;594;46915;-68
2023/10/12 13:25:51;;;;;;;;;10.00;6.00;;;;;24.42;54.24;101581.44;146619;581;46020;-68
2023/10/12 13:28:47;;;;;;;;;5.33;5.33;;;;;24.40;52.62;101574.31;146615;577;46016;-68
2023/10/12 13:31:54;;;;;;;;;6.67;6.33;;;;;24.37;55.35;101579.59;146622;583;46020;-68
2023/10/12 13:35:02;;;;;;;;;8.00;7.00;;;;;24.33;53.62;101575.13;146617;626;46016;-68
2023/10/12 13:38:02;;;;;;;;;7.00;5.00;;;;;24.28;52.78;101572.44;146622;582;46010;-67
2023/10/12 13:41:01;;;;;;;;;7.00;7.00;;;;;24.17;52.06;101568.81;146617;585;47012;-68
2023/10/12 13:44:05;;;;;;;;;7.00;6.00;;;;;24.07;57.36;101573.13;146616;684;46912;-68
2023/10/12 13:47:07;;;;;;;;;7.67;6.67;;;;;24.01;56.83;101574.84;146619;725;46014;-68
2023/10/12 13:50:10;;;;;;;;;10.33;7.67;;;;;24.01;54.27;101574.84;146624;642;46020;-68
2023/10/12 13:53:08;;;;;;;;;5.67;4.67;;;;;24.01;55.26;101578.38;146619;569;46016;-67
2023/10/12 13:56:30;;;;;;;;;9.00;7.00;;;;;23.41;54.37;101477.13;146621;574;47020;-68
2023/10/12 13:59:57;;;;;;;;;;;;;;;;;;;;;
2023/10/12 14:02:59;;;;;;;;;8.00;7.33;;;;;23.85;54.71;101574.69;146624;667;46010;-69
2023/10/12 14:06:06;;;;;;;;;8.00;6.67;;;;;23.79;54.87;101564.03;146618;569;46016;-67
2023/10/12 14:08:58;;;;;;;;;7.00;6.00;;;;;23.76;55.13;101571.94;146624;658;46021;-67
2023/10/12 14:12:13;;;;;;;;;7.33;7.00;;;;;23.74;57.33;101563.13;146618;619;46016;-68
2023/10/12 14:15:18;;;;;;;;;7.33;6.33;;;;;22.73;56.19;101380.22;146621;647;47010;-68
2023/10/12 14:18:17;;;;;;;;;7.67;7.33;;;;;23.73;54.52;101566.63;146618;614;46016;-68
2023/10/12 14:21:31;;;;;;;;;10.00;8.67;;;;;23.70;56.89;101567.47;146619;677;47010;-68
2023/10/12 14:24:33;;;;;;;;;7.00;7.00;;;;;23.65;56.71;101569.16;146641;610;45915;-68
2023/10/12 14:27:28;;;;;;;;;9.33;8.67;;;;;23.59;54.30;101570.84;146645;624;46010;-68
2023/10/12 14:30:38;;;;;;;;;5.00;5.00;;;;;23.52;55.66;101562.84;146641;648;45017;-68
2023/10/12 14:33:51;;;;;;;;;8.00;7.00;;;;;23.47;55.03;101564.53;146647;576;45010;-69
2023/10/12 14:37:13;;;;;;;;;5.00;5.00;;;;;23.43;55.31;101568.03;146640;567;45916;-68
2023/10/12 14:40:28;;;;;;;;;6.67;6.67;;;;;23.38;55.72;101569.72;146643;586;45020;-67
2023/10/12 14:43:53;;;;;;;;;7.00;7.00;;;;;23.35;54.52;101566.16;146639;639;45920;-67
2023/10/12 14:46:58;;;;;;;;;9.33;7.33;;;;;23.30;57.12;101566.09;146644;586;46021;-68
2023/10/12 14:49:58;;;;;;;;;9.67;7.67;;;;;23.28;56.52;101573.13;146642;565;46012;-69
2023/10/12 14:52:56;;;;;;;;;8.00;8.00;;;;;23.26;57.55;101572.22;146647;566;44045;-69
2023/10/12 14:56:15;;;;;;;;;7.00;7.00;;;;;22.14;56.59;101380.31;146640;569;46012;-68
2023/10/12 14:59:08;;;;;;;;;10.00;6.67;;;;;23.16;53.69;101565.03;146644;597;46010;-69
2023/10/12 15:02:22;;;;;;;;;7.33;6.00;;;;;21.87;53.84;101370.25;146641;593;46914;-68
2023/10/12 15:05:31;;;;;;;;;7.67;6.33;;;;;22.82;56.28;101560.13;146641;746;45020;-68
2023/10/12 15:08:40;;;;;;;;;9.67;8.00;;;;;22.74;56.76;101560.88;146638;667;46014;-68
2023/10/12 15:11:47;;;;;;;;;8.33;8.33;;;;;22.65;56.30;101563.41;146648;596;45010;-68
2023/10/12 15:15:13;;;;;;;;;6.00;6.00;;;;;21.40;58.18;101365.06;146640;688;45915;-67
2023/10/12 15:18:13;;;;;;;;;6.33;6.33;;;;;22.57;58.45;101558.87;146645;595;45030;-69
2023/10/12 15:21:21;;;;;;;;;8.67;7.00;;;;;22.54;56.85;101556.19;146641;657;45920;-68
2023/10/12 15:24:28;;;;;;;;;11.00;8.00;;;;;22.46;56.42;101549.94;146623;595;46020;-67
2023/10/12 15:27:22;;;;;;;;;9.00;8.00;;;;;22.36;55.90;101564.72;146617;710;47916;-67
2023/10/12 15:30:25;;;;;;;;;7.00;7.00;;;;;22.30;58.63;101561.97;146623;626;46021;-68
2023/10/12 15:33:46;;;;;;;;;9.33;9.00;;;;;22.33;60.59;101566.44;146616;586;47012;-68
2023/10/12 15:36:54;;;;;;;;;;;;;;;;;;;;;
2023/10/12 15:39:49;;;;;;;;;10.67;9.33;;;;;22.32;59.32;101568.19;146616;697;46012;-67
2023/10/12 15:43:03;;;;;;;;;9.33;9.00;;;;;22.27;61.26;101574.25;146622;668;46020;-66
2023/10/12 15:45:59;;;;;;;;;10.33;10.33;;;;;22.16;61.46;101579.37;146619;591;46014;-68
2023/10/12 15:49:00;;;;;;;;;9.00;7.00;;;;;22.03;61.55;101580.88;146620;585;47010;-68
2023/10/12 15:52:04;;;;;;;;;11.00;11.00;;;;;21.88;62.47;101584.12;146617;572;46013;-68
2023/10/12 15:55:14;;;;;;;;;11.67;11.00;;;;;21.73;62.97;101575.91;146617;593;47010;-68
2023/10/12 15:58:27;;;;;;;;;12.67;10.33;;;;;21.57;64.18;101587.03;146615;581;46016;-66
2023/10/12 16:01:37;;;;;;;;;10.67;10.33;;;;;21.41;64.52;101586.72;146616;690;46021;-67
2023/10/12 16:04:58;;;;;;;;;11.00;10.67;;;;;21.26;65.49;101591.62;146606;574;47014;-67
2023/10/12 16:08:08;;;;;;;;;11.67;10.67;;;;;21.08;65.66;101583.31;146619;566;48012;-67
2023/10/12 16:11:07;;;;;;;;;13.00;11.67;;;;;20.91;66.48;101583.84;146612;597;46012;-67
2023/10/12 16:14:19;;;;;;;;;12.00;11.00;;;;;20.80;66.98;101590.59;146617;591;47011;-68
2023/10/12 16:17:35;;;;;;;;;7.33;7.00;;;;;19.55;67.30;101399.69;146616;575;46014;-67
2023/10/12 16:20:28;;;;;;;;;6.33;6.33;;;;;20.51;66.88;101596.09;146618;610;47020;-68
2023/10/12 16:23:23;;;;;;;;;10.33;8.33;;;;;20.39;67.44;101586.97;146619;608;47014;-68
2023/10/12 16:26:26;;;;;;;;;9.00;8.33;;;;;20.26;67.63;101594.56;146621;578;46020;-69
2023/10/12 16:29:47;;;;;;;;;9.00;8.00;;;;;20.15;67.44;101595.13;146618;669;46017;-67
2023/10/12 16:32:55;;;;;;;;;8.67;8.33;;;;;20.08;67.90;101596.72;146624;618;46010;-68
2023/10/12 16:35:56;;;;;;;;;8.67;8.67;;;;;20.00;68.17;101600.88;146618;565;46916;-67
2023/10/12 16:38:57;;;;;;;;;10.33;9.00;;;;;19.96;68.60;101593.75;146620;566;47012;-69
2023/10/12 16:42:01;;;;;;;;;;;;;;;;;;;;;
2023/10/12 16:45:03;;;;;;;;;11.33;10.33;;;;;19.79;68.97;101596.81;146622;574;46010;-69
2023/10/12 16:48:16;;;;;;;;;12.67;9.00;;;;;19.73;69.38;101603.66;146617;570;46016;-68
2023/10/12 16:51:20;;;;;;;;;10.33;10.33;;;;;19.70;68.61;101601.84;146617;658;47013;-67
2023/10/12 16:54:24;;;;;;;;;10.67;10.00;;;;;19.65;66.38;101597.28;146614;563;46016;-68
2023/10/12 16:57:29;;;;;;;;;11.33;7.67;;;;;19.65;65.40;101603.44;146617;726;47010;-68
2023/10/12 17:00:24;;;;;;;;;10.67;8.33;;;;;19.64;64.53;101606.00;146615;586;46017;-68
2023/10/12 17:03:21;;;;;;;;;15.00;11.00;;;;;19.62;62.91;101608.56;146620;596;46020;-67
2023/10/12 17:06:18;;;;;;;;;13.00;12.33;;;;;18.64;63.79;101440.97;146614;570;46917;-69
2023/10/12 17:09:20;;;;;;;;;13.33;11.00;;;;;19.60;64.08;101605.03;146618;628;46020;-68
2023/10/12 17:12:24;;;;;;;;;12.00;11.67;;;;;19.58;63.11;101611.97;146615;570;46016;-68
2023/10/12 17:15:19;;;;;;;;;14.67;14.33;;;;;19.54;63.67;101605.75;146614;635;47010;-69
2023/10/12 17:18:14;;;;;;;;;10.33;10.33;;;;;19.49;63.02;101609.06;146610;619;46035;-70
2023/10/12 17:21:12;;;;;;;;;12.33;12.33;;;;;19.43;64.46;101612.41;146620;659;46021;-67
2023/10/12 17:24:22;;;;;;;;;13.33;11.67;;;;;18.22;63.76;101407.34;146618;642;46016;-68
2023/10/12 17:27:33;;;;;;;;;21.33;19.67;;;;;19.37;64.94;101606.97;146633;687;45020;-68
2023/10/12 17:30:31;;;;;;;;;15.33;12.33;;;;;19.39;64.05;101621.06;146631;610;45014;-69
2023/10/12 17:33:30;;;;;;;;;9.33;9.00;;;;;19.41;62.49;101619.38;146639;591;45020;-68
2023/10/12 17:36:46;;;;;;;;;11.00;10.00;;;;;18.38;62.66;101445.44;146631;572;45034;-69
2023/10/12 17:39:44;;;;;;;;;17.33;16.33;;;;;19.42;62.28;101628.16;146638;575;45012;-69
2023/10/12 17:42:43;;;;;;;;;14.67;12.33;;;;;19.45;63.89;101628.25;146633;623;45016;-69
2023/10/12 17:45:48;;;;;;;;;9.00;8.00;;;;;19.49;62.41;101624.84;146635;597;45010;-68
2023/10/12 17:49:03;;;;;;;;;14.33;13.00;;;;;19.05;63.52;101542.94;146630;582;46012;-69
2023/10/12 17:52:03;;;;;;;;;10.00;9.00;;;;;19.55;60.46;101627.66;146638;613;45021;-68
2023/10/12 17:54:55;;;;;;;;;10.67;7.00;;;;;19.53;61.23;101622.38;146632;586;46016;-69
2023/10/12 17:57:58;;;;;;;;;7.00;6.00;;;;;19.51;60.17;101625.81;146637;565;45011;-68
2023/10/12 18:00:59;;;;;;;;;7.33;7.00;;;;;19.43;57.67;101616.78;146634;586;45012;-69
2023/10/12 18:04:13;;;;;;;;;9.67;8.33;;;;;19.34;61.00;101620.03;146636;585;45020;-68
2023/10/12 18:07:14;;;;;;;;;8.00;7.33;;;;;19.29;60.71;101619.91;146632;588;46916;-69
2023/10/12 18:10:16;;;;;;;;;7.00;6.00;;;;;19.21;60.02;101620.53;146638;578;45010;-67
2023/10/12 18:13:16;;;;;;;;;8.00;5.33;;;;;19.14;59.77;101624.69;146632;613;45917;-69
2023/10/12 18:16:27;;;;;;;;;;;;;;;;;;;;;
2023/10/12 18:19:35;;;;;;;;;9.67;8.00;;;;;17.77;59.69;101409.38;146636;576;45017;-70
2023/10/12 18:22:52;;;;;;;;;6.00;5.00;;;;;18.94;61.63;101626.72;146634;593;45012;-70
2023/10/12 18:25:59;;;;;;;;;7.00;5.00;;;;;18.87;60.92;101616.84;146615;569;47012;-70
2023/10/12 18:29:10;;;;;;;;;5.33;4.67;;;;;18.77;60.70;101623.53;146620;667;48010;-67
2023/10/12 18:32:21;;;;;;;;;;;;;;;;;;;;;
2023/10/12 18:35:21;;;;;;;;;3.67;3.67;;;;;18.68;61.12;101626.72;146621;638;46021;-68
2023/10/12 18:38:41;;;;;;;;;;;;;;;;;;;;;
2023/10/12 18:41:41;;;;;;;;;6.00;4.67;;;;;18.62;58.69;101628.25;146621;569;47010;-68
2023/10/12 18:44:46;;;;;;;;;3.67;3.00;;;;;18.53;58.80;101620.97;146617;599;46017;-67
2023/10/12 18:48:08;;;;;;;;;7.00;4.50;;;;;18.46;59.51;101622.50;146621;599;46020;-68
2023/10/12 18:51:29;;;;;;;;;7.00;6.00;;;;;17.27;61.88;101429.50;146618;606;46014;-67
2023/10/12 18:54:31;;;;;;;;;5.33;5.00;;;;;18.38;60.86;101626.63;146623;568;46010;-68
2023/10/12 18:57:53;;;;;;;;;4.00;4.00;;;;;17.79;62.17;101544.09;146618;582;46017;-68
2023/10/12 19:01:31;;;;;;;;;5.00;3.67;;;;;18.32;62.58;101634.28;146621;575;46010;-68
2023/10/12 19:04:49;;;;;;;;;4.67;4.67;;;;;17.21;62.55;101439.75;146618;564;46013;-67
2023/10/12 19:08:18;;;;;;;;;;;;;;;;;;;;;
2023/10/12 19:11:29;;;;;;;;;6.33;4.67;;;;;18.29;62.54;101635.94;146616;593;46016;-68
2023/10/12 19:14:27;;;;;;;;;4.00;4.00;;;;;18.30;62.01;101635.97;146619;583;46021;-68
2023/10/12 19:17:38;;;;;;;;;7.00;3.00;;;;;18.31;62.05;101629.84;146618;584;46914;-69
2023/10/12 19:20:46;;;;;;;;;3.33;3.33;;;;;18.30;61.73;101637.69;146622;648;47012;-69
2023/10/12 19:23:43;;;;;;;;;5.00;4.67;;;;;18.26;61.43;101638.44;146617;590;47016;-68
2023/10/12 19:26:42;;;;;;;;;5.00;5.00;;;;;18.24;62.48;101635.75;146619;684;47010;-67
2023/10/12 19:29:53;;;;;;;;;7.67;4.67;;;;;18.25;64.28;101637.53;146616;611;47012;-67
2023/10/12 19:32:59;;;;;;;;;4.00;4.00;;;;;18.30;63.71;101632.44;146622;678;46020;-66
2023/10/12 19:36:05;;;;;;;;;3.33;3.33;;;;;18.34;64.96;101634.34;146616;569;46013;-66
2023/10/12 19:39:07;;;;;;;;;5.33;5.33;;;;;18.36;64.27;101635.28;146622;595;46020;-68
2023/10/12 19:42:05;;;;;;;;;6.67;4.00;;;;;18.37;63.47;101634.44;146617;593;46031;-67
2023/10/12 19:45:11;;;;;;;;;4.00;3.00;;;;;18.39;63.28;101633.66;146623;563;46010;-68
2023/10/12 19:48:06;;;;;;;;;4.67;4.67;;;;;18.39;63.57;101641.53;146615;614;47014;-67
2023/10/12 19:51:26;;;;;;;;;4.33;4.33;;;;;18.41;63.93;101636.31;146616;593;46021;-68
2023/10/12 19:54:32;;;;;;;;;5.00;2.67;;;;;17.47;64.35;101465.13;146619;759;46016;-68
2023/10/12 19:57:33;;;;;;;;;5.33;5.33;;;;;18.46;63.63;101635.62;146623;572;46010;-67
2023/10/12 20:00:39;;;;;;;;;4.00;4.00;;;;;18.45;63.34;101635.59;146617;580;47014;-67
2023/10/12 20:03:57;;;;;;;;;4.67;4.67;;;;;18.41;63.45;101644.19;146624;570;46010;-68
2023/10/12 20:07:02;;;;;;;;;5.33;5.00;;;;;18.36;62.92;101646.69;146616;572;47014;-69
2023/10/12 20:09:55;;;;;;;;;7.33;5.00;;;;;18.26;63.96;101634.09;146620;569;47012;-67
2023/10/12 20:13:00;;;;;;;;;5.00;4.00;;;;;18.19;64.07;101635.59;146615;586;46017;-68
2023/10/12 20:16:04;;;;;;;;;6.00;5.00;;;;;18.11;63.70;101634.44;146621;586;46020;-67
2023/10/12 20:19:05;;;;;;;;;4.00;4.00;;;;;18.08;63.75;101638.69;146617;597;47013;-67
2023/10/12 20:22:06;;;;;;;;;4.00;4.00;;;;;18.03;63.90;101637.63;146617;569;46010;-67
2023/10/12 20:25:12;;;;;;;;;5.33;5.00;;;;;17.95;64.08;101634.75;146616;686;46016;-67
2023/10/12 20:28:24;;;;;;;;;6.00;6.00;;;;;17.79;65.58;101625.44;146620;692;46021;-67
2023/10/12 20:31:16;;;;;;;;;4.33;4.33;;;;;17.70;66.34;101623.34;146615;574;47014;-68
2023/10/12 20:34:23;;;;;;;;;5.00;5.00;;;;;17.65;67.65;101624.00;146617;683;47010;-68
2023/10/12 20:37:52;;;;;;;;;5.67;5.00;;;;;17.61;67.33;101629.97;146615;592;46016;-67
2023/10/12 20:40:52;;;;;;;;;5.00;5.00;;;;;17.59;68.11;101627.28;146621;606;45047;-66
2023/10/12 20:44:04;;;;;;;;;;;;;;;;;;;;;
2023/10/12 20:47:05;;;;;;;;;5.00;3.33;;;;;17.57;67.16;101621.09;146617;572;47010;-66
2023/10/12 20:50:27;;;;;;;;;3.00;3.00;;;;;17.55;66.37;101626.28;146615;590;47014;-66
2023/10/12 20:53:38;;;;;;;;;6.00;5.00;;;;;17.50;66.25;101624.31;146621;657;46010;-67
2023/10/12 20:56:43;;;;;;;;;3.67;3.67;;;;;17.40;66.09;101617.84;146618;567;46016;-66
2023/10/12 20:59:51;;;;;;;;;6.67;3.00;;;;;17.35;66.71;101621.09;146619;582;47020;-66
2023/10/12 21:02:54;;;;;;;;;3.00;3.00;;;;;16.18;67.36;101412.31;146614;570;47016;-68
2023/10/12 21:09:45;;;;;;;;;;;;;;;;;;;;;
2023/10/12 21:13:11;;;;;;;;;;;;;;;;;;;;;
2023/10/12 21:16:34;;;;;;;;;3.00;3.00;;;;;16.10;66.40;101395.41;146616;572;47016;-67
2023/10/12 21:23:09;;;;;;;;;5.67;4.33;;;;;16.47;68.22;101480.59;146617;673;46016;-67
2023/10/12 21:26:35;;;;;;;;;4.67;3.00;;;;;17.09;68.23;101593.06;146620;638;47013;-68
2023/10/12 21:29:43;;;;;;;;;;;;;;;;;;;;;
2023/10/12 21:32:52;;;;;;;;;7.50;6.00;;;;;17.05;67.91;101596.41;146619;587;47020;-67
2023/10/12 21:36:01;;;;;;;;;7.00;6.00;;;;;17.00;67.99;101603.19;146617;593;46913;-68
2023/10/12 21:39:10;;;;;;;;;4.00;4.00;;;;;16.96;68.96;101596.06;146619;597;47010;-68
2023/10/12 21:42:18;;;;;;;;;5.67;4.00;;;;;16.88;67.51;101589.59;146620;653;46012;-68
2023/10/12 21:45:32;;;;;;;;;3.67;3.00;;;;;16.76;67.96;101599.59;146617;593;47010;-68
2023/10/12 21:48:40;;;;;;;;;;;;;;;;;;;;;
2023/10/12 21:51:48;;;;;;;;;6.00;3.67;;;;;16.56;67.82;101586.56;146618;678;46023;-68
2023/10/12 21:54:51;;;;;;;;;4.00;4.00;;;;;16.48;68.16;101584.47;146618;596;46016;-68
2023/10/12 21:57:59;;;;;;;;;4.33;4.33;;;;;16.47;68.67;101585.31;146618;680;47011;-69
2023/10/12 22:00:58;;;;;;;;;3.00;2.00;;;;;16.46;68.19;101586.16;146618;580;46016;-68
2023/10/12 22:03:58;;;;;;;;;2.67;2.67;;;;;16.48;68.76;101582.78;146623;601;47010;-68
2023/10/12 22:07:08;;;;;;;;;3.33;3.33;;;;;16.55;68.35;101578.66;146618;578;46016;-68
2023/10/12 22:10:49;;;;;;;;;;;;;;;;;;;;;
2023/10/12 22:14:04;;;;;;;;;;;;;;;;;;;;;
2023/10/12 22:17:29;;;;;;;;;4.33;3.00;;;;;16.51;68.26;101582.91;146620;616;46020;-68
2023/10/12 22:20:44;;;;;;;;;3.00;3.00;;;;;16.46;65.81;101589.66;146614;592;47012;-67
2023/10/12 22:23:42;;;;;;;;;4.33;4.33;;;;;16.30;67.21;101579.41;146617;590;47010;-65
2023/10/12 22:26:43;;;;;;;;;5.67;4.33;;;;;16.25;67.75;101586.16;146619;585;46012;-67
2023/10/12 22:29:45;;;;;;;;;6.33;5.00;;;;;16.25;68.03;101586.16;146621;578;46010;-67
2023/10/12 22:32:43;;;;;;;;;5.67;5.00;;;;;16.25;68.43;101587.03;146619;582;46035;-67
2023/10/12 22:35:59;;;;;;;;;;;;;;;;;;;;;
2023/10/12 22:38:52;;;;;;;;;5.00;4.00;;;;;16.18;68.01;101585.00;146615;607;47012;-66
2023/10/12 22:42:16;;;;;;;;;6.00;5.00;;;;;16.11;68.88;101578.63;146621;613;46021;-66
2023/10/12 22:45:21;;;;;;;;;5.33;3.00;;;;;16.06;68.93;101581.88;146617;597;47014;-66
2023/10/12 22:48:23;;;;;;;;;4.33;4.33;;;;;16.02;69.70;101583.47;146621;690;46030;-66
2023/10/12 22:51:25;;;;;;;;;4.67;4.67;;;;;15.94;70.03;101577.88;146618;639;46016;-67
2023/10/12 22:54:33;;;;;;;;;6.67;6.00;;;;;15.91;69.00;101575.13;146622;582;46010;-66
2023/10/12 22:57:39;;;;;;;;;6.00;5.00;;;;;14.58;69.88;101346.28;146614;649;47012;-67
2023/10/12 23:00:40;;;;;;;;;6.00;5.33;;;;;15.84;69.85;101585.28;146621;595;46036;-67
2023/10/12 23:03:36;;;;;;;;;9.33;5.33;;;;;15.82;70.61;101574.72;146613;580;46017;-67
2023/10/12 23:06:39;;;;;;;;;3.67;3.67;;;;;15.81;70.42;101564.22;146619;650;46020;-67
2023/10/12 23:09:41;;;;;;;;;7.33;7.00;;;;;15.84;70.97;101577.44;146617;629;47012;-68
2023/10/12 23:13:00;;;;;;;;;6.33;6.33;;;;;15.85;71.02;101571.38;146621;573;46020;-67
2023/10/12 23:16:06;;;;;;;;;7.33;6.67;;;;;15.95;71.29;101570.97;146617;595;47012;-68
2023/10/12 23:19:43;;;;;;;;;8.67;8.00;;;;;16.03;70.85;101574.78;146620;575;47010;-67
2023/10/12 23:22:46;;;;;;;;;8.33;8.00;;;;;16.06;70.29;101571.41;146615;587;47012;-67
2023/10/12 23:26:09;;;;;;;;;8.33;7.67;;;;;15.01;70.02;101390.84;146621;599;46020;-67
2023/10/12 23:29:06;;;;;;;;;7.00;6.00;;;;;16.01;70.95;101573.84;146613;591;46016;-67
2023/10/12 23:32:11;;;;;;;;;8.00;7.00;;;;;15.96;71.28;101570.13;146617;585;47020;-67
2023/10/12 23:35:18;;;;;;;;;9.33;8.00;;;;;15.86;71.64;101573.19;146616;593;46016;-67
2023/10/12 23:38:28;;;;;;;;;7.00;7.00;;;;;15.81;72.07;101579.91;146620;583;46020;-67
2023/10/12 23:41:23;;;;;;;;;8.00;8.00;;;;;15.77;72.50;101580.62;146618;646;47012;-66